Athens Eleftherios, Greece

6:28 PM EEST on July 25, 2016 (GMT +0300)
Agios Nikolaos, Spata-19004, Athens (GR) | | Change Station

Elev 446 ft 37.98 °N, 23.90 °E | Updated 60 seconds ago

Clear
Clear
88.8 °F
Feels Like 85 °F
N
9.2
Wind Variable Wind from North
Gusts 13.6 mph

Today
High -- | Low -- °F
--% Chance of Precip.
Yesterday
High -- | Low -- °F
Precip. -- in
Pressure 29.83 in
Visibility -9999.0 miles
Clouds
Heat Index 85 °F
Dew Point 45 °F
Humidity 22%
Rainfall 0.00 in
Snow Depth Not available.
6:21 AM 8:39 PM
Waning Gibbous, 65% visible
METAR LGAV 251520Z 02018KT CAVOK 30/11 Q1010 NOSIG
Pressure 29.83 in
Visibility -9999.0 miles
Clouds
Heat Index 85 °F
Dew Point 45 °F
Humidity 22%
Rainfall 0.00 in
Snow Depth Not available.
6:21 AM 8:39 PM
Waning Gibbous, 65% visible
METAR LGAV 251520Z 02018KT CAVOK 30/11 Q1010 NOSIG

10-Day Weather Forecast

×

Almanac

Astronomy

Jul. 25, 2016 Rise Set
Actual Time
Civil Twilight
Nautical Twilight
Astronomical Twilight
Moon
Length of Visible Light
Length of Day
Tomorrow will be .
, % of the Moon is Illuminated

Today's Extremes

Country Highs Country Lows

Community

WunderPhotos

Upload Photos

1,927,318 photos uploaded!

WunderBlog® & News

Nearby

Air Quality

  Air Quality AQ Index Pollutant
Not available.

Snow Depth

Station Depth Elevation

Earthquake Activity

City Distance Mag. Time & Date
Minimum magnitude displayed is 2.5.

Coastal Water Temperatures

Place Temperature

Stations

Nearby Weather Stations

Station Location Temp. Windchill Dew Point Humidity Wind Precip. Elev Updated Type